Time;durP1;ratioP1;P1;durP2;ratioP2;P2;SDS_P1;SDS_P2;PMS_P1;PMS_P2;Temp;Humidity;BMP_temperature;BMP_pressure;BME280_temperature;BME280_humidity;BME280_pressure;Samples;Min_cycle;Max_cycle;Signal;HPM_P1;HPM_P2
2022/04/27 00:00:48;;;;;;;4.17;3.20;;;;;;;;;;5004473;28;20221;-85
2022/04/27 00:03:52;;;;;;;4.67;3.80;;;;;;;;;;5006018;28;20181;-83
2022/04/27 00:06:57;;;;;;;4.10;3.57;;;;;;;;;;5006516;28;20186;-83
2022/04/27 00:10:01;;;;;;;6.13;3.57;;;;;;;;;;5005602;28;20213;-83
2022/04/27 00:13:05;;;;;;;4.97;3.60;;;;;;;;;;5017570;28;20186;-83
2022/04/27 00:16:09;;;;;;;4.73;3.83;;;;;;;;;;5016949;28;20182;-85
2022/04/27 00:19:14;;;;;;;4.43;3.73;;;;;;;;;;5017847;28;20534;-85
2022/04/27 00:22:18;;;;;;;4.77;4.00;;;;;;;;;;5005676;28;20181;-85
2022/04/27 00:25:23;;;;;;;4.27;3.70;;;;;;;;;;5005388;28;20201;-85
2022/04/27 00:28:28;;;;;;;6.40;4.20;;;;;;;;;;5016803;28;20198;-86
2022/04/27 00:31:32;;;;;;;3.60;3.20;;;;;;;;;;5016953;28;20229;-85
2022/04/27 00:34:36;;;;;;;4.77;4.20;;;;;;;;;;5006097;28;20533;-85
2022/04/27 00:37:40;;;;;;;4.70;4.10;;;;;;;;;;5005221;28;20182;-88
2022/04/27 00:40:45;;;;;;;7.33;4.17;;;;;;;;;;5004471;28;20217;-83
2022/04/27 00:43:49;;;;;;;5.97;4.37;;;;;;;;;;5006219;28;20177;-87
2022/04/27 00:46:54;;;;;;;6.60;5.10;;;;;;;;;;5004958;28;20181;-84
2022/04/27 00:49:58;;;;;;;5.73;4.93;;;;;;;;;;5005586;28;20217;-84
2022/04/27 00:53:02;;;;;;;5.67;4.53;;;;;;;;;;5004343;28;20630;-88
2022/04/27 00:56:07;;;;;;;5.20;4.40;;;;;;;;;;5016562;28;20660;-83
2022/04/27 00:59:11;;;;;;;6.37;4.53;;;;;;;;;;5016765;28;21007;-83
2022/04/27 01:02:16;;;;;;;5.53;4.53;;;;;;;;;;5004718;28;20189;-84
2022/04/27 01:05:21;;;;;;;5.50;4.50;;;;;;;;;;5005990;28;20182;-84
2022/04/27 01:08:25;;;;;;;6.07;5.00;;;;;;;;;;5007008;28;20174;-85
2022/04/27 01:11:33;;;;;;;6.20;5.27;;;;;;;;;;5004027;28;20221;-87
2022/04/27 01:14:45;;;;;;;6.17;5.17;;;;;;;;;;5017039;28;20548;-87
2022/04/27 01:17:49;;;;;;;7.57;5.83;;;;;;;;;;5006880;28;20186;-84
2022/04/27 01:20:54;;;;;;;8.50;6.20;;;;;;;;;;5006305;28;20216;-84
2022/04/27 01:23:58;;;;;;;6.10;4.77;;;;;;;;;;5017836;28;20182;-85
2022/04/27 01:27:03;;;;;;;6.40;4.80;;;;;;;;;;5007455;28;20181;-84
2022/04/27 01:30:08;;;;;;;6.57;4.77;;;;;;;;;;5006680;28;20220;-84
2022/04/27 01:33:13;;;;;;;7.87;5.93;;;;;;;;;;5018266;28;20185;-84
2022/04/27 01:36:17;;;;;;;8.60;5.70;;;;;;;;;;5007472;28;20548;-84
2022/04/27 01:39:23;;;;;;;8.00;6.07;;;;;;;;;;5007425;28;20201;-84
2022/04/27 01:42:27;;;;;;;10.47;6.53;;;;;;;;;;5007172;28;20181;-84
2022/04/27 01:45:31;;;;;;;7.67;6.00;;;;;;;;;;5006932;28;20526;-84
2022/04/27 01:48:35;;;;;;;9.60;6.47;;;;;;;;;;5018477;28;20185;-84
2022/04/27 01:55:03;;;;;;;9.47;6.20;;;;;;;;;;5007210;28;20182;-84
2022/04/27 01:58:08;;;;;;;7.47;5.97;;;;;;;;;;5007169;28;20540;-84
2022/04/27 02:01:12;;;;;;;9.57;5.73;;;;;;;;;;5007121;28;20217;-85
2022/04/27 02:04:17;;;;;;;6.63;5.53;;;;;;;;;;5006830;28;20181;-84
2022/04/27 02:07:22;;;;;;;6.67;5.33;;;;;;;;;;5017462;28;20177;-84
2022/04/27 02:10:26;;;;;;;8.93;6.87;;;;;;;;;;5006912;28;20213;-84
2022/04/27 02:13:33;;;;;;;11.97;7.70;;;;;;;;;;5017919;28;20178;-84
2022/04/27 02:16:39;;;;;;;9.10;6.33;;;;;;;;;;5005821;28;20182;-84
2022/04/27 02:19:49;;;;;;;9.27;6.67;;;;;;;;;;5005591;28;20205;-84
2022/04/27 02:22:54;;;;;;;8.47;6.70;;;;;;;;;;5005745;28;20181;-84
2022/04/27 02:26:01;;;;;;;9.50;6.93;;;;;;;;;;5006087;28;20182;-84
2022/04/27 02:29:05;;;;;;;7.90;6.03;;;;;;;;;;5006038;28;20177;-84
2022/04/27 02:32:10;;;;;;;9.23;6.40;;;;;;;;;;5016841;28;20169;-84
2022/04/27 02:35:16;;;;;;;9.77;7.50;;;;;;;;;;5017160;28;20189;-84
2022/04/27 02:38:21;;;;;;;9.07;6.63;;;;;;;;;;5007220;28;20632;-84
2022/04/27 02:41:28;;;;;;;9.23;7.27;;;;;;;;;;5016545;28;20217;-84
2022/04/27 02:44:32;;;;;;;10.97;6.90;;;;;;;;;;5017084;28;20174;-84
2022/04/27 02:47:37;;;;;;;9.17;7.20;;;;;;;;;;5006316;28;20525;-84
2022/04/27 02:54:04;;;;;;;9.57;7.23;;;;;;;;;;5005113;28;20182;-84
2022/04/27 02:57:08;;;;;;;9.70;6.87;;;;;;;;;;5005526;28;20185;-84
2022/04/27 03:00:12;;;;;;;9.87;7.80;;;;;;;;;;5016246;28;20225;-84
2022/04/27 03:03:17;;;;;;;9.67;7.10;;;;;;;;;;5016491;28;20186;-84
2022/04/27 03:06:21;;;;;;;10.13;7.43;;;;;;;;;;5016662;28;20177;-84
2022/04/27 03:09:26;;;;;;;8.43;6.80;;;;;;;;;;5016856;28;20178;-84
2022/04/27 03:12:30;;;;;;;11.13;7.10;;;;;;;;;;5005877;28;20193;-84
2022/04/27 03:15:36;;;;;;;11.23;8.50;;;;;;;;;;5016953;28;20197;-84
2022/04/27 03:18:40;;;;;;;13.27;8.97;;;;;;;;;;5004735;28;20225;-84
2022/04/27 03:21:46;;;;;;;13.60;9.87;;;;;;;;;;5005402;28;20212;-84
2022/04/27 03:24:51;;;;;;;10.80;8.47;;;;;;;;;;5016153;28;20181;-84
2022/04/27 03:27:57;;;;;;;10.73;7.63;;;;;;;;;;5015912;28;20173;-84
2022/04/27 03:31:01;;;;;;;9.80;8.00;;;;;;;;;;5028454;22;20703;-88
2022/04/27 03:34:15;;;;;;;13.53;10.13;;;;;;;;;;5002004;28;20193;-88
2022/04/27 03:37:19;;;;;;;14.43;10.30;;;;;;;;;;5005923;28;20178;-87
2022/04/27 03:40:25;;;;;;;8.97;7.53;;;;;;;;;;4994422;28;20672;-87
2022/04/27 03:43:30;;;;;;;11.40;8.40;;;;;;;;;;5005967;28;20177;-88
2022/04/27 03:46:34;;;;;;;11.73;8.93;;;;;;;;;;5005561;28;20186;-88
2022/04/27 03:49:39;;;;;;;15.83;9.47;;;;;;;;;;5016660;28;20197;-88
2022/04/27 03:52:44;;;;;;;11.60;8.87;;;;;;;;;;5005515;28;20213;-88
2022/04/27 03:55:49;;;;;;;13.87;9.93;;;;;;;;;;5005138;28;20536;-87
2022/04/27 03:58:53;;;;;;;14.13;9.93;;;;;;;;;;5005328;28;20217;-88
2022/04/27 04:01:58;;;;;;;14.53;10.80;;;;;;;;;;5005351;28;20213;-88
2022/04/27 04:05:06;;;;;;;15.07;9.50;;;;;;;;;;5005529;28;20181;-88
2022/04/27 04:08:10;;;;;;;13.67;10.17;;;;;;;;;;5005401;28;20178;-88
2022/04/27 04:11:15;;;;;;;15.97;12.13;;;;;;;;;;5005506;28;20707;-87
2022/04/27 04:14:42;;;;;;;17.53;11.00;;;;;;;;;;4999609;28;20205;-87
2022/04/27 04:18:00;;;;;;;15.07;9.70;;;;;;;;;;4996118;28;20178;-87
2022/04/27 04:21:13;;;;;;;15.23;9.77;;;;;;;;;;4995209;28;20213;-87
2022/04/27 04:24:30;;;;;;;14.17;8.90;;;;;;;;;;5006544;28;20181;-87
2022/04/27 04:31:04;;;;;;;14.73;9.40;;;;;;;;;;5004687;28;20221;-88
2022/04/27 04:34:21;;;;;;;13.10;9.27;;;;;;;;;;4995370;28;20182;-88
2022/04/27 04:37:26;;;;;;;13.90;10.53;;;;;;;;;;5004686;28;20365;-88
2022/04/27 04:40:33;;;;;;;13.37;10.00;;;;;;;;;;5004509;28;20210;-87
2022/04/27 04:43:39;;;;;;;16.20;11.07;;;;;;;;;;5004501;28;20182;-88
2022/04/27 04:46:45;;;;;;;18.50;11.50;;;;;;;;;;5003172;28;20181;-88
2022/04/27 04:50:07;;;;;;;17.13;12.17;;;;;;;;;;5004440;28;20513;-88
2022/04/27 04:53:23;;;;;;;13.70;10.97;;;;;;;;;;4994732;28;20182;-87
2022/04/27 04:56:46;;;;;;;14.47;11.17;;;;;;;;;;5006753;28;20649;-88
2022/04/27 05:00:09;;;;;;;14.43;11.03;;;;;;;;;;5007815;28;20213;-87
2022/04/27 05:03:36;;;;;;;15.13;11.60;;;;;;;;;;5004542;28;20182;-87
2022/04/27 05:07:05;;;;;;;17.47;12.80;;;;;;;;;;5004215;28;20178;-87
2022/04/27 05:10:36;;;;;;;16.07;11.90;;;;;;;;;;5007712;28;20659;-89
2022/04/27 05:13:46;;;;;;;17.00;12.20;;;;;;;;;;5004607;28;20186;-88
2022/04/27 05:17:08;;;;;;;16.73;12.57;;;;;;;;;;5006281;28;20177;-88
2022/04/27 05:20:38;;;;;;;15.83;12.17;;;;;;;;;;5015088;28;20220;-88
2022/04/27 05:24:08;;;;;;;16.03;12.33;;;;;;;;;;4995832;28;20183;-88
2022/04/27 05:27:27;;;;;;;18.20;12.97;;;;;;;;;;4974823;28;20202;-88
2022/04/27 05:32:03;;;;;;;16.50;12.60;;;;;;;;;;4988727;28;20225;-88
2022/04/27 05:34:41;;;;;;;16.83;12.47;;;;;;;;;;5001280;28;20186;-89
2022/04/27 05:37:57;;;;;;;15.53;12.00;;;;;;;;;;4990745;28;20190;-88
2022/04/27 05:41:28;;;;;;;14.90;11.53;;;;;;;;;;5012302;28;20576;-88
2022/04/27 05:44:43;;;;;;;16.90;13.03;;;;;;;;;;4993732;28;20660;-88
2022/04/27 05:48:01;;;;;;;16.13;12.33;;;;;;;;;;5003016;28;20652;-88
2022/04/27 05:51:13;;;;;;;17.13;12.73;;;;;;;;;;4981348;28;20237;-88
2022/04/27 05:54:26;;;;;;;15.33;11.80;;;;;;;;;;4996158;28;20637;-88
2022/04/27 05:57:35;;;;;;;14.93;11.60;;;;;;;;;;4983621;28;20179;-88
2022/04/27 06:00:50;;;;;;;15.20;11.60;;;;;;;;;;4994476;28;20230;-88
2022/04/27 06:04:14;;;;;;;14.67;12.00;;;;;;;;;;5001603;28;20185;-88
2022/04/27 06:07:25;;;;;;;16.43;12.07;;;;;;;;;;5010739;28;20560;-88
2022/04/27 06:10:30;;;;;;;14.50;11.70;;;;;;;;;;4991896;28;20557;-88
2022/04/27 06:13:38;;;;;;;17.50;11.97;;;;;;;;;;4992053;28;20173;-89
2022/04/27 06:16:56;;;;;;;13.27;11.07;;;;;;;;;;4992542;28;20660;-88
2022/04/27 06:20:01;;;;;;;16.10;12.33;;;;;;;;;;4976818;28;20218;-88
2022/04/27 06:23:06;;;;;;;16.17;12.07;;;;;;;;;;4987529;28;20204;-88
2022/04/27 06:26:11;;;;;;;16.27;12.27;;;;;;;;;;4990861;28;20190;-88
2022/04/27 06:29:20;;;;;;;16.30;13.10;;;;;;;;;;4991126;28;20182;-88
2022/04/27 06:32:30;;;;;;;17.93;12.77;;;;;;;;;;5001887;28;20229;-88
2022/04/27 06:35:40;;;;;;;17.30;13.47;;;;;;;;;;4992096;28;20193;-88
2022/04/27 06:39:04;;;;;;;16.67;12.50;;;;;;;;;;5112307;27;20737;-88
2022/04/27 06:42:09;;;;;;;16.47;12.87;;;;;;;;;;5090369;28;20589;-88
2022/04/27 06:45:13;;;;;;;19.27;13.33;;;;;;;;;;5090247;28;20195;-88
2022/04/27 06:48:36;;;;;;;18.20;13.57;;;;;;;;;;5090467;28;20626;-88
2022/04/27 06:51:59;;;;;;;18.07;13.30;;;;;;;;;;5090436;28;20215;-88
2022/04/27 06:55:21;;;;;;;18.03;13.47;;;;;;;;;;5080907;28;20187;-89
2022/04/27 06:58:49;;;;;;;19.60;15.10;;;;;;;;;;5077235;28;20214;-88
2022/04/27 07:02:08;;;;;;;21.50;14.90;;;;;;;;;;5072056;28;20223;-88
2022/04/27 07:05:17;;;;;;;20.10;15.40;;;;;;;;;;5068099;28;20187;-89
2022/04/27 07:08:22;;;;;;;19.40;14.77;;;;;;;;;;5078140;28;20638;-88
2022/04/27 07:11:26;;;;;;;21.90;15.70;;;;;;;;;;5078099;28;20214;-89
2022/04/27 07:14:30;;;;;;;21.90;16.17;;;;;;;;;;5067000;28;20179;-88
2022/04/27 07:17:35;;;;;;;24.53;16.57;;;;;;;;;;5077709;28;20212;-88
2022/04/27 07:20:39;;;;;;;22.20;17.00;;;;;;;;;;5089150;28;20195;-88
2022/04/27 07:23:43;;;;;;;20.00;15.73;;;;;;;;;;5077746;28;20191;-89
2022/04/27 07:26:47;;;;;;;22.30;16.03;;;;;;;;;;5066290;28;20199;-88
2022/04/27 07:29:51;;;;;;;20.87;15.63;;;;;;;;;;5088691;28;20191;-88
2022/04/27 07:32:55;;;;;;;22.40;16.73;;;;;;;;;;5089244;28;20175;-89
2022/04/27 07:36:00;;;;;;;22.17;16.00;;;;;;;;;;5090051;28;20191;-89
2022/04/27 07:39:05;;;;;;;21.30;16.77;;;;;;;;;;5077622;28;20211;-88
2022/04/27 07:42:09;;;;;;;23.43;16.17;;;;;;;;;;5077040;28;20214;-89
2022/04/27 07:45:13;;;;;;;21.87;15.50;;;;;;;;;;5062261;28;20179;-88
2022/04/27 07:48:18;;;;;;;22.07;15.87;;;;;;;;;;5064205;28;20519;-88
2022/04/27 07:51:21;;;;;;;21.43;15.63;;;;;;;;;;5075424;28;20558;-88
2022/04/27 07:54:26;;;;;;;21.97;15.87;;;;;;;;;;5044026;28;20630;-89
2022/04/27 07:57:31;;;;;;;22.10;15.90;;;;;;;;;;5055567;28;20207;-89
2022/04/27 08:00:35;;;;;;;24.43;16.70;;;;;;;;;;5051789;28;20204;-89
2022/04/27 08:03:39;;;;;;;21.53;15.63;;;;;;;;;;5063696;28;20191;-89
2022/04/27 08:06:43;;;;;;;22.03;15.23;;;;;;;;;;5052519;28;20515;-89
2022/04/27 08:09:48;;;;;;;21.20;15.63;;;;;;;;;;5075143;28;20179;-89
2022/04/27 08:12:52;;;;;;;19.57;14.53;;;;;;;;;;5051773;28;20187;-87
2022/04/27 08:15:56;;;;;;;21.87;15.30;;;;;;;;;;5052395;28;20179;-87
2022/04/27 08:19:00;;;;;;;23.13;15.33;;;;;;;;;;5052216;28;20203;-87
2022/04/27 08:22:06;;;;;;;22.43;15.17;;;;;;;;;;5062880;28;20571;-88
2022/04/27 08:25:10;;;;;;;20.70;13.87;;;;;;;;;;5051888;28;20192;-88
2022/04/27 08:28:16;;;;;;;18.33;14.30;;;;;;;;;;5063740;28;20172;-88
2022/04/27 08:31:20;;;;;;;23.80;14.10;;;;;;;;;;5075625;28;20215;-88
2022/04/27 08:34:25;;;;;;;19.23;14.30;;;;;;;;;;5053981;28;20184;-87
2022/04/27 08:37:29;;;;;;;20.80;14.47;;;;;;;;;;5063016;28;20669;-88
2022/04/27 08:40:36;;;;;;;20.03;13.57;;;;;;;;;;5063286;28;20187;-88
2022/04/27 08:43:40;;;;;;;17.67;13.57;;;;;;;;;;5074760;28;20199;-88
2022/04/27 08:46:44;;;;;;;17.33;13.00;;;;;;;;;;5074177;28;20199;-88
2022/04/27 08:49:48;;;;;;;20.40;13.67;;;;;;;;;;5060024;28;20191;-88
2022/04/27 08:52:53;;;;;;;17.70;12.80;;;;;;;;;;5050565;28;20187;-87
2022/04/27 08:55:58;;;;;;;18.50;13.83;;;;;;;;;;5044442;28;20183;-87
2022/04/27 08:59:03;;;;;;;20.10;14.80;;;;;;;;;;5056474;28;20208;-87
2022/04/27 09:02:43;;;;;;;17.20;13.77;;;;;;;;;;5060980;28;20570;-87
2022/04/27 09:05:52;;;;;;;16.57;13.10;;;;;;;;;;5011464;28;20698;-88
2022/04/27 09:08:56;;;;;;;16.70;13.17;;;;;;;;;;5054240;28;20176;-88
2022/04/27 09:12:02;;;;;;;15.60;12.03;;;;;;;;;;5053897;28;20219;-88
2022/04/27 09:15:08;;;;;;;15.07;11.83;;;;;;;;;;5058143;28;20665;-88
2022/04/27 09:21:53;;;;;;;20.07;14.73;;;;;;;;;;5073611;28;20231;-88
2022/04/27 09:25:00;;;;;;;11.60;9.37;;;;;;;;;;5061670;28;20187;-87
2022/04/27 09:28:04;;;;;;;14.50;10.77;;;;;;;;;;5059738;28;20199;-88
2022/04/27 09:31:09;;;;;;;11.20;9.53;;;;;;;;;;5073417;28;20223;-86
2022/04/27 09:34:46;;;;;;;9.27;8.27;;;;;;;;;;5062691;28;20191;-85
2022/04/27 09:37:44;;;;;;;10.47;8.87;;;;;;;;;;5074483;28;20207;-85
2022/04/27 09:40:54;;;;;;;11.07;8.97;;;;;;;;;;5075470;28;20223;-85
2022/04/27 09:43:58;;;;;;;9.60;8.60;;;;;;;;;;5062171;28;20539;-86
2022/04/27 09:47:04;;;;;;;12.93;10.83;;;;;;;;;;5042546;28;20176;-86
2022/04/27 09:50:08;;;;;;;11.97;8.47;;;;;;;;;;5053939;28;20180;-86
2022/04/27 09:53:13;;;;;;;13.73;10.33;;;;;;;;;;5042267;28;20180;-86
2022/04/27 09:56:18;;;;;;;10.40;8.53;;;;;;;;;;5047336;28;20206;-86
2022/04/27 09:59:26;;;;;;;9.20;7.63;;;;;;;;;;5062110;28;20207;-85
2022/04/27 10:02:32;;;;;;;7.30;6.60;;;;;;;;;;5073426;28;20219;-85
2022/04/27 10:05:35;;;;;;;8.67;7.10;;;;;;;;;;5050753;28;20191;-86
2022/04/27 10:08:40;;;;;;;7.43;6.63;;;;;;;;;;5049714;28;20183;-86
2022/04/27 10:11:44;;;;;;;6.60;6.00;;;;;;;;;;5049896;28;20216;-86
2022/04/27 10:14:49;;;;;;;6.90;6.17;;;;;;;;;;5061354;28;20533;-86
2022/04/27 10:17:54;;;;;;;6.33;5.73;;;;;;;;;;5073272;28;20645;-86
2022/04/27 10:20:59;;;;;;;6.30;5.40;;;;;;;;;;5061769;28;20223;-86
2022/04/27 10:24:05;;;;;;;7.20;5.27;;;;;;;;;;5062416;28;20176;-86
2022/04/27 10:27:20;;;;;;;5.20;4.70;;;;;;;;;;5074949;28;20677;-87
2022/04/27 10:30:41;;;;;;;5.37;4.57;;;;;;;;;;5065761;28;20175;-87
2022/04/27 10:33:50;;;;;;;6.13;4.97;;;;;;;;;;5056193;28;20180;-87
2022/04/27 10:36:59;;;;;;;5.87;5.27;;;;;;;;;;5038445;28;20554;-87
2022/04/27 10:40:23;;;;;;;5.80;5.10;;;;;;;;;;5072741;28;20204;-87
2022/04/27 10:43:42;;;;;;;6.53;4.80;;;;;;;;;;5061010;28;20195;-86
2022/04/27 10:46:46;;;;;;;6.67;5.20;;;;;;;;;;5064253;28;20528;-87
2022/04/27 10:50:19;;;;;;;7.17;5.20;;;;;;;;;;5064728;28;20176;-87
2022/04/27 10:53:29;;;;;;;5.57;4.97;;;;;;;;;;5076661;28;20184;-87
2022/04/27 10:56:33;;;;;;;5.17;4.67;;;;;;;;;;5052433;28;20175;-87
2022/04/27 10:59:43;;;;;;;7.57;4.77;;;;;;;;;;5063993;28;20199;-87
2022/04/27 11:02:49;;;;;;;5.23;4.73;;;;;;;;;;5064534;28;20219;-86
2022/04/27 11:05:57;;;;;;;6.17;5.03;;;;;;;;;;5064539;28;20187;-86
2022/04/27 11:09:12;;;;;;;5.40;4.90;;;;;;;;;;5065385;28;20176;-87
2022/04/27 11:12:18;;;;;;;5.37;4.87;;;;;;;;;;5053063;28;20555;-87
2022/04/27 11:15:25;;;;;;;6.47;5.10;;;;;;;;;;5076424;28;20176;-87
2022/04/27 11:18:52;;;;;;;5.40;4.70;;;;;;;;;;5052136;28;20215;-87
2022/04/27 11:22:11;;;;;;;4.67;3.90;;;;;;;;;;5062619;28;20245;-86
2022/04/27 11:25:26;;;;;;;4.90;4.40;;;;;;;;;;5054606;28;20180;-86
2022/04/27 11:28:31;;;;;;;4.93;4.23;;;;;;;;;;5067713;28;20179;-87
2022/04/27 11:31:35;;;;;;;4.60;4.20;;;;;;;;;;5069065;28;20211;-87
2022/04/27 11:34:39;;;;;;;4.50;4.10;;;;;;;;;;5068771;28;20171;-86
2022/04/27 11:37:44;;;;;;;4.47;4.07;;;;;;;;;;5058686;28;20207;-87
2022/04/27 11:40:49;;;;;;;4.60;4.20;;;;;;;;;;5069383;28;20543;-86
2022/04/27 11:43:54;;;;;;;4.63;4.20;;;;;;;;;;5067581;28;20211;-87
2022/04/27 11:46:58;;;;;;;4.17;3.73;;;;;;;;;;5067962;28;20191;-87
2022/04/27 11:50:04;;;;;;;4.70;4.00;;;;;;;;;;5067939;28;20187;-87
2022/04/27 11:53:11;;;;;;;7.43;4.90;;;;;;;;;;5079109;28;20175;-87
2022/04/27 11:56:17;;;;;;;4.77;3.73;;;;;;;;;;5067920;28;20179;-87
2022/04/27 11:59:21;;;;;;;4.33;3.93;;;;;;;;;;5056400;28;20199;-87
2022/04/27 12:02:26;;;;;;;7.00;5.10;;;;;;;;;;5066393;28;20227;-87
2022/04/27 12:05:32;;;;;;;4.90;3.77;;;;;;;;;;5066367;28;20180;-87
2022/04/27 12:08:41;;;;;;;4.50;4.00;;;;;;;;;;5054904;28;20175;-86
2022/04/27 12:11:45;;;;;;;4.27;3.60;;;;;;;;;;5066610;28;20559;-87
2022/04/27 12:14:50;;;;;;;7.77;3.90;;;;;;;;;;5065210;28;20203;-86
2022/04/27 12:17:56;;;;;;;3.90;3.30;;;;;;;;;;5055140;28;20183;-87
2022/04/27 12:21:00;;;;;;;4.07;3.67;;;;;;;;;;5065596;28;20555;-87
2022/04/27 12:24:19;;;;;;;4.23;3.67;;;;;;;;;;5066519;28;20179;-87
2022/04/27 12:27:23;;;;;;;3.70;3.27;;;;;;;;;;5077856;28;20184;-87
2022/04/27 12:30:27;;;;;;;8.17;3.40;;;;;;;;;;5054919;28;20171;-88
2022/04/27 12:33:37;;;;;;;5.70;3.57;;;;;;;;;;5055000;28;20183;-87
2022/04/27 12:40:14;;;;;;;4.00;3.60;;;;;;;;;;5066357;28;20207;-87
2022/04/27 12:43:22;;;;;;;5.63;3.60;;;;;;;;;;5078153;28;20179;-87
2022/04/27 12:46:26;;;;;;;4.67;3.83;;;;;;;;;;5053633;28;20176;-87
2022/04/27 12:49:32;;;;;;;3.67;3.37;;;;;;;;;;5064092;28;20175;-86
2022/04/27 12:52:37;;;;;;;4.33;3.93;;;;;;;;;;5051901;28;20215;-87
2022/04/27 12:55:41;;;;;;;3.80;3.40;;;;;;;;;;5063105;28;20191;-87
2022/04/27 12:59:02;;;;;;;4.37;2.97;;;;;;;;;;5074293;28;20183;-87
2022/04/27 13:02:08;;;;;;;8.43;3.60;;;;;;;;;;5074656;28;20227;-87
2022/04/27 13:05:13;;;;;;;4.40;4.00;;;;;;;;;;5074919;28;20653;-88
2022/04/27 13:08:17;;;;;;;3.87;3.47;;;;;;;;;;5062708;28;20191;-88
2022/04/27 13:14:44;;;;;;;3.90;3.37;;;;;;;;;;5076857;28;20194;-87
2022/04/27 13:17:48;;;;;;;4.13;3.67;;;;;;;;;;5042844;28;20188;-87
2022/04/27 13:20:53;;;;;;;5.73;3.77;;;;;;;;;;5054088;28;20227;-87
2022/04/27 13:23:57;;;;;;;3.20;2.90;;;;;;;;;;5061419;28;20191;-89
2022/04/27 13:27:01;;;;;;;4.07;3.53;;;;;;;;;;5062852;28;20191;-87
2022/04/27 13:30:06;;;;;;;3.77;3.40;;;;;;;;;;5062618;28;20176;-87
2022/04/27 13:33:11;;;;;;;7.10;2.97;;;;;;;;;;5063154;28;20535;-87
2022/04/27 13:36:15;;;;;;;6.63;3.60;;;;;;;;;;5074312;28;20527;-87
2022/04/27 13:39:19;;;;;;;3.67;3.27;;;;;;;;;;5073672;28;20673;-87
2022/04/27 13:42:23;;;;;;;4.53;3.57;;;;;;;;;;5074008;28;20219;-86
2022/04/27 13:45:30;;;;;;;5.27;3.67;;;;;;;;;;5062553;28;20179;-87
2022/04/27 13:48:34;;;;;;;5.73;3.20;;;;;;;;;;5062285;28;20175;-87
2022/04/27 13:51:40;;;;;;;7.50;5.73;;;;;;;;;;5051301;28;20207;-88
2022/04/27 13:54:48;;;;;;;4.33;3.93;;;;;;;;;;5062428;28;20175;-88
2022/04/27 13:57:59;;;;;;;10.10;3.90;;;;;;;;;;5061987;28;20183;-88
2022/04/27 14:01:04;;;;;;;7.43;4.03;;;;;;;;;;5073255;28;20226;-86
2022/04/27 14:04:08;;;;;;;4.80;3.67;;;;;;;;;;5050786;28;20179;-86
2022/04/27 14:07:12;;;;;;;4.60;3.80;;;;;;;;;;5050557;28;20179;-88
2022/04/27 14:10:16;;;;;;;3.90;3.27;;;;;;;;;;5061707;28;20171;-88
2022/04/27 14:13:22;;;;;;;4.20;3.80;;;;;;;;;;5061849;28;20187;-88
2022/04/27 14:19:49;;;;;;;4.83;3.73;;;;;;;;;;5073124;28;20203;-88
2022/04/27 14:22:53;;;;;;;4.83;3.70;;;;;;;;;;5050136;28;20531;-88
2022/04/27 14:25:57;;;;;;;4.10;3.50;;;;;;;;;;5061430;28;20179;-88
2022/04/27 14:29:01;;;;;;;4.73;3.60;;;;;;;;;;5049893;28;20199;-87
2022/04/27 14:32:06;;;;;;;4.80;3.40;;;;;;;;;;5050251;28;20214;-87
2022/04/27 14:35:10;;;;;;;3.87;3.17;;;;;;;;;;5061786;28;20555;-87
2022/04/27 14:38:14;;;;;;;4.60;4.20;;;;;;;;;;5073608;28;20202;-87
2022/04/27 14:41:20;;;;;;;4.10;3.13;;;;;;;;;;5051599;28;20222;-86
2022/04/27 14:44:24;;;;;;;7.67;3.10;;;;;;;;;;5061846;28;20519;-86
2022/04/27 14:47:28;;;;;;;4.83;4.03;;;;;;;;;;5061963;28;20527;-87
2022/04/27 14:50:34;;;;;;;3.73;3.30;;;;;;;;;;5062731;28;20171;-87
2022/04/27 14:53:38;;;;;;;3.77;2.87;;;;;;;;;;5062665;28;20172;-86
2022/04/27 14:56:42;;;;;;;3.90;2.70;;;;;;;;;;5062090;28;20191;-88
2022/04/27 14:59:46;;;;;;;3.87;3.10;;;;;;;;;;5082571;28;20207;-88
2022/04/27 15:02:51;;;;;;;3.17;2.87;;;;;;;;;;5070578;28;20195;-87
2022/04/27 15:05:56;;;;;;;4.90;2.80;;;;;;;;;;5083026;28;20171;-86
2022/04/27 15:09:00;;;;;;;3.43;2.30;;;;;;;;;;5077193;28;20203;-87
2022/04/27 15:12:05;;;;;;;3.13;2.83;;;;;;;;;;5065051;28;20685;-87
2022/04/27 15:15:10;;;;;;;3.27;2.97;;;;;;;;;;5066809;28;20515;-87
2022/04/27 15:18:16;;;;;;;4.27;2.43;;;;;;;;;;5077420;28;20539;-87
2022/04/27 15:24:43;;;;;;;4.20;3.00;;;;;;;;;;5077688;28;20183;-86
2022/04/27 15:27:47;;;;;;;3.33;2.70;;;;;;;;;;5078582;28;20175;-86
2022/04/27 15:30:52;;;;;;;3.13;2.83;;;;;;;;;;5079336;28;20211;-86
2022/04/27 15:33:56;;;;;;;4.67;2.87;;;;;;;;;;5065165;28;20199;-86
2022/04/27 15:37:00;;;;;;;5.17;2.97;;;;;;;;;;5064846;28;20653;-86
2022/04/27 15:40:05;;;;;;;3.73;2.90;;;;;;;;;;5065328;28;20211;-86
2022/04/27 15:43:09;;;;;;;4.00;2.80;;;;;;;;;;5053748;28;20200;-87
2022/04/27 15:46:13;;;;;;;5.80;2.50;;;;;;;;;;5052375;28;20192;-87
2022/04/27 15:49:17;;;;;;;3.73;2.53;;;;;;;;;;5063574;28;20180;-88
2022/04/27 15:52:21;;;;;;;5.70;3.93;;;;;;;;;;5058957;28;20215;-88
2022/04/27 15:55:26;;;;;;;3.37;2.83;;;;;;;;;;5064275;28;20535;-87
2022/04/27 15:58:30;;;;;;;3.53;2.83;;;;;;;;;;5064561;28;20180;-87
2022/04/27 16:01:36;;;;;;;3.67;2.63;;;;;;;;;;5064010;28;20277;-87
2022/04/27 16:04:41;;;;;;;4.43;3.20;;;;;;;;;;5053065;28;20195;-87
2022/04/27 16:07:47;;;;;;;4.10;3.20;;;;;;;;;;5054367;28;20195;-84
2022/04/27 16:10:51;;;;;;;4.63;2.83;;;;;;;;;;5064642;28;20211;-86
2022/04/27 16:13:55;;;;;;;4.57;2.97;;;;;;;;;;5052441;28;20172;-86
2022/04/27 16:17:00;;;;;;;4.47;3.40;;;;;;;;;;5062673;28;20179;-88
2022/04/27 16:20:05;;;;;;;3.60;2.90;;;;;;;;;;5062167;28;20211;-88
2022/04/27 16:23:10;;;;;;;6.13;3.20;;;;;;;;;;5074523;28;20191;-87
2022/04/27 16:26:14;;;;;;;2.97;2.60;;;;;;;;;;5057141;28;20188;-85
2022/04/27 16:29:18;;;;;;;3.07;2.73;;;;;;;;;;5063014;28;20534;-86
2022/04/27 16:32:22;;;;;;;3.00;2.53;;;;;;;;;;5053046;28;20215;-88
2022/04/27 16:35:26;;;;;;;3.80;3.00;;;;;;;;;;5032475;28;20172;-87
2022/04/27 16:38:30;;;;;;;4.23;3.40;;;;;;;;;;5047526;28;20207;-87
2022/04/27 16:41:35;;;;;;;4.13;3.13;;;;;;;;;;5064834;28;20227;-86
2022/04/27 16:44:39;;;;;;;3.83;3.40;;;;;;;;;;5066184;28;20179;-86
2022/04/27 16:47:43;;;;;;;5.93;2.80;;;;;;;;;;5054066;28;20176;-85
2022/04/27 16:50:47;;;;;;;2.90;2.57;;;;;;;;;;5054287;28;20574;-85
2022/04/27 16:53:52;;;;;;;5.80;3.23;;;;;;;;;;5066420;28;20175;-84
2022/04/27 16:56:56;;;;;;;3.13;2.83;;;;;;;;;;5065743;28;20179;-85
2022/04/27 17:03:25;;;;;;;4.03;3.07;;;;;;;;;;5076925;28;20200;-84
2022/04/27 17:06:29;;;;;;;4.57;3.13;;;;;;;;;;5065564;28;20171;-87
2022/04/27 17:09:33;;;;;;;3.83;3.20;;;;;;;;;;5077088;28;20187;-86
2022/04/27 17:12:38;;;;;;;4.97;3.30;;;;;;;;;;5065058;28;20685;-85
2022/04/27 17:15:42;;;;;;;3.73;3.10;;;;;;;;;;5064597;28;20647;-86
2022/04/27 17:18:46;;;;;;;3.67;3.13;;;;;;;;;;5053593;28;20192;-87
2022/04/27 17:21:53;;;;;;;3.90;3.30;;;;;;;;;;5064311;28;20227;-88
2022/04/27 17:24:57;;;;;;;5.10;2.93;;;;;;;;;;5065164;28;20180;-87
2022/04/27 17:28:01;;;;;;;3.40;3.10;;;;;;;;;;5064113;28;20187;-87
2022/04/27 17:31:05;;;;;;;5.10;3.07;;;;;;;;;;5076203;28;20547;-88
2022/04/27 17:34:10;;;;;;;6.20;3.10;;;;;;;;;;5076961;28;20191;-88
2022/04/27 17:37:15;;;;;;;4.23;3.20;;;;;;;;;;5064803;28;20669;-88
2022/04/27 17:40:20;;;;;;;4.17;3.33;;;;;;;;;;5053871;28;20195;-88
2022/04/27 17:43:24;;;;;;;7.60;3.57;;;;;;;;;;5064215;28;20196;-88
2022/04/27 17:46:29;;;;;;;4.23;3.27;;;;;;;;;;5076231;28;20183;-87
2022/04/27 17:49:33;;;;;;;3.73;3.30;;;;;;;;;;5075474;28;20217;-88
2022/04/27 17:52:41;;;;;;;8.13;2.87;;;;;;;;;;5063990;28;20207;-87
2022/04/27 17:55:46;;;;;;;6.63;3.23;;;;;;;;;;5052314;28;20180;-88
2022/04/27 17:58:50;;;;;;;4.73;2.87;;;;;;;;;;5064243;28;20188;-88
2022/04/27 18:01:54;;;;;;;4.90;2.80;;;;;;;;;;5063666;28;20227;-88
2022/04/27 18:05:00;;;;;;;5.00;2.40;;;;;;;;;;5064035;28;20187;-88
2022/04/27 18:08:04;;;;;;;3.30;2.60;;;;;;;;;;5052521;28;20669;-88
2022/04/27 18:11:08;;;;;;;2.83;2.53;;;;;;;;;;5063550;28;20215;-86
2022/04/27 18:14:13;;;;;;;2.70;2.50;;;;;;;;;;5075162;28;20191;-86
2022/04/27 18:17:18;;;;;;;4.53;2.93;;;;;;;;;;5063623;28;20519;-86
2022/04/27 18:20:23;;;;;;;3.37;2.87;;;;;;;;;;5071846;28;20535;-87
2022/04/27 18:23:28;;;;;;;3.00;2.70;;;;;;;;;;5075616;28;20199;-86
2022/04/27 18:26:32;;;;;;;3.30;2.73;;;;;;;;;;5052193;28;20199;-85
2022/04/27 18:29:36;;;;;;;2.90;2.60;;;;;;;;;;5062416;28;20184;-86
2022/04/27 18:32:41;;;;;;;2.97;2.67;;;;;;;;;;5063824;28;20215;-87
2022/04/27 18:35:46;;;;;;;3.40;2.60;;;;;;;;;;5073184;28;20179;-88
2022/04/27 18:38:50;;;;;;;8.03;3.00;;;;;;;;;;5048818;28;20207;-88
2022/04/27 18:41:54;;;;;;;3.77;3.37;;;;;;;;;;5049172;28;20223;-88
2022/04/27 18:51:44;;;;;;;7.83;3.07;;;;;;;;;;5072588;28;20215;-88
2022/04/27 18:54:52;;;;;;;2.77;2.47;;;;;;;;;;5052924;28;20180;-87
2022/04/27 18:57:56;;;;;;;3.23;2.83;;;;;;;;;;5045199;28;20191;-88
2022/04/27 19:01:06;;;;;;;5.43;3.03;;;;;;;;;;5072310;28;20223;-88
2022/04/27 19:04:10;;;;;;;3.47;3.03;;;;;;;;;;5049700;28;20558;-87
2022/04/27 19:07:15;;;;;;;4.43;3.10;;;;;;;;;;5072587;28;20172;-87
2022/04/27 19:10:21;;;;;;;3.00;2.70;;;;;;;;;;5029559;28;20181;-87